createdAt,value
2022-09-20T00:01:21.922Z,82.20
2022-09-20T00:03:51.633Z,82.20
2022-09-20T00:06:21.298Z,82.50
2022-09-20T00:08:51.142Z,83.10
2022-09-20T00:11:21.195Z,82.80
2022-09-20T00:13:50.491Z,82.80
2022-09-20T00:16:21.845Z,82.90
2022-09-20T00:18:50.701Z,82.80
2022-09-20T00:21:20.569Z,83.00
2022-09-20T00:23:48.374Z,83.10
2022-09-20T00:26:17.582Z,83.00
2022-09-20T00:28:46.929Z,82.80
2022-09-20T00:31:15.817Z,82.90
2022-09-20T00:34:01.607Z,83.20
2022-09-20T00:36:29.778Z,83.10
2022-09-20T00:38:58.109Z,82.90
2022-09-20T00:41:27.370Z,82.90
2022-09-20T00:43:55.682Z,82.60
2022-09-20T00:46:28.888Z,82.50
2022-09-20T00:49:04.215Z,82.70
2022-09-20T00:51:35.696Z,82.60
2022-09-20T00:54:06.399Z,82.40
2022-09-20T00:56:38.225Z,82.40
2022-09-20T00:59:12.502Z,82.50
2022-09-20T01:01:40.596Z,82.50
2022-09-20T01:04:09.610Z,82.40
2022-09-20T01:06:38.240Z,83.20
2022-09-20T01:09:07.666Z,82.60
2022-09-20T01:11:38.028Z,80.90
2022-09-20T01:14:05.884Z,82.80
2022-09-20T01:16:34.800Z,82.50
2022-09-20T01:19:09.560Z,83.00
2022-09-20T01:21:37.501Z,83.10
2022-09-20T01:24:14.174Z,82.90
2022-09-20T01:27:09.446Z,83.20
2022-09-20T01:29:53.814Z,83.60
2022-09-20T01:32:25.360Z,83.50
2022-09-20T01:34:57.202Z,83.50
2022-09-20T01:37:27.891Z,83.50
2022-09-20T01:40:03.822Z,83.30
2022-09-20T01:42:34.944Z,83.30
2022-09-20T01:45:11.794Z,83.20
2022-09-20T01:47:45.329Z,83.20
2022-09-20T01:50:23.050Z,83.00
2022-09-20T01:53:16.431Z,83.00
2022-09-20T01:56:01.362Z,83.20
2022-09-20T01:59:22.741Z,83.00
2022-09-20T02:02:08.108Z,83.10
2022-09-20T02:05:11.518Z,83.20
2022-09-20T02:07:54.930Z,83.50
2022-09-20T02:10:39.942Z,83.50
2022-09-20T02:13:12.370Z,83.70
2022-09-20T02:16:12.427Z,84.50
2022-09-20T02:18:57.774Z,84.30
2022-09-20T02:21:36.706Z,84.20
2022-09-20T02:24:14.486Z,84.20
2022-09-20T02:26:50.352Z,84.20
2022-09-20T02:29:26.987Z,84.20
2022-09-20T02:32:16.555Z,85.10
2022-09-20T02:35:13.613Z,84.60
2022-09-20T02:38:01.385Z,84.60
2022-09-20T02:40:46.518Z,84.60
2022-09-20T02:43:26.107Z,84.50
2022-09-20T02:46:01.804Z,84.50
2022-09-20T02:48:37.558Z,84.60
2022-09-20T02:51:15.153Z,84.70
2022-09-20T02:53:50.254Z,84.80
2022-09-20T02:56:25.843Z,84.70
2022-09-20T02:59:00.362Z,84.80
2022-09-20T03:01:39.680Z,84.70
2022-09-20T03:04:21.659Z,84.80
2022-09-20T03:06:58.707Z,84.80
2022-09-20T03:09:33.180Z,84.70
2022-09-20T03:12:10.960Z,84.70
2022-09-20T03:14:46.547Z,84.60
2022-09-20T03:17:22.979Z,86.10
2022-09-20T03:20:06.526Z,84.70
2022-09-20T03:22:46.478Z,84.80
2022-09-20T03:25:45.646Z,84.70
2022-09-20T03:28:27.438Z,84.80
2022-09-20T03:31:05.715Z,84.80
2022-09-20T03:33:45.183Z,84.80
2022-09-20T03:36:25.918Z,85.00
2022-09-20T03:39:12.048Z,85.00
2022-09-20T03:41:51.091Z,85.80
2022-09-20T03:44:54.991Z,86.30
2022-09-20T03:47:40.801Z,86.20
2022-09-20T03:50:33.347Z,85.80
2022-09-20T03:53:34.367Z,85.70
2022-09-20T03:56:21.262Z,85.70
2022-09-20T03:59:03.882Z,85.50
2022-09-20T04:01:50.958Z,85.50
2022-09-20T04:04:25.850Z,85.40
2022-09-20T04:07:14.465Z,85.40
2022-09-20T04:10:01.254Z,85.60
2022-09-20T04:12:41.560Z,85.40
2022-09-20T04:15:23.491Z,85.30
2022-09-20T04:17:59.569Z,85.50
2022-09-20T04:20:35.802Z,85.50
2022-09-20T04:23:13.618Z,85.50
2022-09-20T04:25:47.362Z,85.50
2022-09-20T04:28:22.843Z,85.40
2022-09-20T04:30:56.701Z,87.90
2022-09-20T04:33:29.189Z,85.20
2022-09-20T04:36:24.401Z,85.20
2022-09-20T04:39:01.698Z,85.20
2022-09-20T04:42:00.004Z,85.10
2022-09-20T04:45:07.895Z,85.20
2022-09-20T04:48:05.427Z,85.30
2022-09-20T04:51:08.712Z,85.20
2022-09-20T04:53:58.346Z,85.10
2022-09-20T04:56:38.126Z,85.00
2022-09-20T04:59:08.697Z,85.10
2022-09-20T05:02:12.149Z,85.00
2022-09-20T05:05:32.297Z,85.20
2022-09-20T05:08:36.713Z,85.40
2022-09-20T05:11:30.697Z,85.60
2022-09-20T05:14:20.206Z,85.70
2022-09-20T05:17:07.070Z,85.50
2022-09-20T05:19:46.594Z,85.60
2022-09-20T05:22:39.942Z,85.60
2022-09-20T05:25:38.538Z,85.70
2022-09-20T05:28:11.170Z,85.90
2022-09-20T05:30:44.679Z,85.60
2022-09-20T05:33:27.152Z,85.60
2022-09-20T05:36:07.879Z,85.80
2022-09-20T05:38:47.220Z,87.90
2022-09-20T05:41:24.311Z,85.80
2022-09-20T05:43:56.546Z,85.80
2022-09-20T05:46:37.738Z,85.80
2022-09-20T05:49:15.463Z,86.30
2022-09-20T05:51:57.487Z,86.30
2022-09-20T05:54:47.402Z,86.40
2022-09-20T05:57:26.108Z,86.50
2022-09-20T06:00:02.759Z,86.30
2022-09-20T06:02:39.256Z,86.40
2022-09-20T06:05:14.922Z,86.40
2022-09-20T06:08:05.138Z,86.40
2022-09-20T06:10:47.206Z,86.60
2022-09-20T06:13:38.772Z,86.50
2022-09-20T06:16:08.698Z,86.50
2022-09-20T06:18:44.729Z,86.30
2022-09-20T06:21:26.307Z,86.30
2022-09-20T06:23:59.408Z,86.40
2022-09-20T06:26:30.003Z,86.60
2022-09-20T06:29:02.716Z,86.60
2022-09-20T06:31:30.754Z,86.60
2022-09-20T06:34:01.573Z,86.50
2022-09-20T06:36:49.995Z,87.00
2022-09-20T06:39:50.799Z,88.40
2022-09-20T06:42:18.890Z,87.40
2022-09-20T06:44:47.035Z,87.30
2022-09-20T06:47:15.823Z,87.60
2022-09-20T06:49:44.605Z,87.90
2022-09-20T06:52:15.528Z,87.90
2022-09-20T06:54:46.064Z,90.70
2022-09-20T06:57:16.870Z,88.10
2022-09-20T06:59:45.650Z,88.10
2022-09-20T07:02:13.598Z,88.00
2022-09-20T07:07:18.276Z,88.00
2022-09-20T07:09:47.833Z,88.10
2022-09-20T07:27:07.480Z,88.40
2022-09-20T07:44:27.884Z,89.10
2022-09-20T07:46:57.628Z,89.00
2022-09-20T07:51:54.864Z,88.60
2022-09-20T07:59:19.572Z,88.10
2022-09-20T08:01:48.850Z,87.60
2022-09-20T08:06:46.553Z,86.80
2022-09-20T08:09:15.146Z,86.50
2022-09-20T08:11:43.649Z,85.90
2022-09-20T08:14:14.342Z,85.80
2022-09-20T08:16:45.316Z,85.40
2022-09-20T08:19:18.622Z,85.30
2022-09-20T08:21:46.986Z,85.20
2022-09-20T08:24:16.431Z,85.20
2022-09-20T08:26:45.122Z,85.30
2022-09-20T08:29:15.242Z,85.50
2022-09-20T08:31:43.865Z,85.40
2022-09-20T08:34:14.859Z,85.40
2022-09-20T08:36:46.689Z,85.00
2022-09-20T08:42:15.533Z,85.50
2022-09-20T08:45:00.012Z,86.00
2022-09-20T08:47:30.957Z,86.10
2022-09-20T08:50:00.700Z,86.00
2022-09-20T08:52:37.200Z,86.10
2022-09-20T08:55:13.691Z,85.80
2022-09-20T08:57:41.566Z,85.90
2022-09-20T09:00:18.633Z,85.90
2022-09-20T09:02:46.682Z,85.80
2022-09-20T09:05:32.332Z,85.70
2022-09-20T09:08:05.041Z,85.90
2022-09-20T09:10:45.119Z,85.90
2022-09-20T09:13:23.005Z,86.50
2022-09-20T09:15:57.750Z,87.10
2022-09-20T09:18:33.153Z,86.40
2022-09-20T09:21:03.230Z,85.50
2022-09-20T09:23:41.396Z,85.50
2022-09-20T09:26:19.951Z,84.90
2022-09-20T09:28:48.333Z,84.20
2022-09-20T09:31:26.759Z,84.30
2022-09-20T09:33:55.863Z,84.40
2022-09-20T09:36:25.682Z,84.30
2022-09-20T09:39:18.554Z,84.70
2022-09-20T09:41:46.546Z,83.60
2022-09-20T09:44:23.559Z,85.60
2022-09-20T09:46:53.420Z,82.80
2022-09-20T09:49:22.886Z,82.00
2022-09-20T09:52:13.012Z,82.10
2022-09-20T09:54:46.922Z,81.80
2022-09-20T09:57:30.479Z,81.40
2022-09-20T10:00:13.211Z,82.70
2022-09-20T10:03:00.418Z,81.20
2022-09-20T10:05:34.056Z,80.90
2022-09-20T10:08:15.444Z,80.80
2022-09-20T10:10:59.406Z,79.90
2022-09-20T10:13:37.106Z,81.90
2022-09-20T10:16:18.764Z,80.20
2022-09-20T10:18:54.215Z,78.70
2022-09-20T10:21:41.939Z,79.30
2022-09-20T10:24:18.927Z,78.40
2022-09-20T10:27:00.583Z,79.00
2022-09-20T10:29:40.519Z,80.50
2022-09-20T10:32:21.048Z,78.60
2022-09-20T10:35:21.038Z,79.50
2022-09-20T10:38:08.595Z,79.40
2022-09-20T10:41:00.390Z,79.70
2022-09-20T10:43:42.767Z,80.20
2022-09-20T10:46:31.852Z,79.60
2022-09-20T10:49:05.980Z,80.10
2022-09-20T10:51:45.478Z,79.40
2022-09-20T10:54:27.610Z,79.00
2022-09-20T10:57:04.784Z,79.40
2022-09-20T10:59:48.178Z,79.30
2022-09-20T11:02:29.822Z,78.50
2022-09-20T11:05:27.161Z,77.20
2022-09-20T11:08:04.297Z,77.00
2022-09-20T11:10:37.223Z,76.90
2022-09-20T11:13:12.340Z,76.10
2022-09-20T11:15:47.554Z,75.80
2022-09-20T11:18:24.020Z,75.70
2022-09-20T11:21:01.122Z,76.90
2022-09-20T11:23:40.616Z,74.00
2022-09-20T11:26:12.856Z,75.80
2022-09-20T11:28:45.952Z,73.40
2022-09-20T11:31:23.545Z,73.80
2022-09-20T11:33:57.724Z,74.10
2022-09-20T11:36:31.468Z,74.20
2022-09-20T11:39:04.665Z,74.50
2022-09-20T11:41:33.272Z,74.90
2022-09-20T11:44:06.904Z,74.60
2022-09-20T11:46:42.510Z,73.50
2022-09-20T11:49:17.442Z,73.10
2022-09-20T11:52:12.304Z,72.90
2022-09-20T11:54:59.320Z,73.30
2022-09-20T11:57:28.416Z,73.00
2022-09-20T11:59:58.026Z,73.70
2022-09-20T12:02:34.907Z,73.30
2022-09-20T12:05:04.444Z,72.60
2022-09-20T12:07:37.355Z,73.50
2022-09-20T12:10:19.809Z,70.80
2022-09-20T12:12:50.055Z,71.20
2022-09-20T12:15:26.388Z,70.80
2022-09-20T12:18:15.431Z,68.90
2022-09-20T12:21:05.818Z,68.00
2022-09-20T12:23:47.843Z,67.70
2022-09-20T12:26:46.458Z,68.20
2022-09-20T12:29:49.074Z,68.40
2022-09-20T12:32:40.972Z,68.30
2022-09-20T12:35:57.826Z,67.90
2022-09-20T12:38:40.172Z,66.20
2022-09-20T12:41:15.013Z,66.40
2022-09-20T12:43:59.414Z,68.40
2022-09-20T12:46:42.041Z,67.10
2022-09-20T12:49:41.634Z,66.90
2022-09-20T12:52:56.302Z,66.50
2022-09-20T12:55:54.904Z,65.90
2022-09-20T12:58:29.578Z,66.50
2022-09-20T13:01:39.228Z,66.70
2022-09-20T13:04:44.795Z,66.80
2022-09-20T13:07:43.873Z,66.00
2022-09-20T13:10:30.253Z,66.60
2022-09-20T13:13:05.582Z,63.30
2022-09-20T13:15:34.850Z,68.20
2022-09-20T13:18:03.696Z,65.20
2022-09-20T13:20:34.786Z,66.40
2022-09-20T13:23:06.152Z,65.30
2022-09-20T13:25:35.120Z,64.70
2022-09-20T13:28:10.131Z,65.60
2022-09-20T13:30:41.728Z,67.70
2022-09-20T13:33:18.344Z,65.70
2022-09-20T13:35:49.936Z,66.00
2022-09-20T13:38:24.926Z,66.50
2022-09-20T13:40:54.087Z,66.50
2022-09-20T13:43:28.876Z,66.80
2022-09-20T13:45:58.857Z,66.60
2022-09-20T13:48:28.259Z,67.00
2022-09-20T13:50:56.560Z,67.20
2022-09-20T13:53:41.002Z,67.10
2022-09-20T13:56:17.128Z,67.10
2022-09-20T13:58:46.540Z,66.50
2022-09-20T14:01:24.323Z,66.70
2022-09-20T14:03:53.763Z,66.70
2022-09-20T14:06:28.087Z,66.80
2022-09-20T14:08:57.049Z,66.30
2022-09-20T14:11:27.075Z,67.20
2022-09-20T14:13:59.096Z,67.20
2022-09-20T14:16:31.218Z,66.50
2022-09-20T14:19:00.323Z,66.50
2022-09-20T14:21:29.605Z,67.80
2022-09-20T14:24:02.256Z,66.90
2022-09-20T14:26:33.538Z,66.40
2022-09-20T14:29:38.406Z,66.00
2022-09-20T14:32:11.062Z,65.90
2022-09-20T14:34:39.834Z,63.40
2022-09-20T14:37:13.729Z,66.40
2022-09-20T14:39:49.097Z,68.20
2022-09-20T14:42:22.126Z,67.40
2022-09-20T14:44:53.994Z,66.80
2022-09-20T14:47:29.326Z,66.00
2022-09-20T14:49:58.038Z,65.20
2022-09-20T14:52:43.682Z,65.50
2022-09-20T14:55:28.385Z,64.30
2022-09-20T14:58:01.823Z,63.40
2022-09-20T15:00:32.065Z,64.00
2022-09-20T15:03:07.274Z,64.40
2022-09-20T15:05:35.142Z,63.70
2022-09-20T15:08:03.467Z,63.60
2022-09-20T15:10:31.463Z,64.10
2022-09-20T15:12:59.537Z,63.90
2022-09-20T15:15:27.662Z,64.70
2022-09-20T15:17:56.973Z,64.70
2022-09-20T15:20:25.434Z,64.40
2022-09-20T15:22:53.514Z,64.70
2022-09-20T15:25:22.439Z,66.80
2022-09-20T15:27:51.722Z,64.40
2022-09-20T15:30:21.100Z,63.80
2022-09-20T15:32:49.388Z,63.90
2022-09-20T15:35:18.727Z,63.90
2022-09-20T15:37:46.611Z,64.40
2022-09-20T15:40:17.350Z,63.20
2022-09-20T15:42:45.830Z,63.70
2022-09-20T15:45:14.726Z,63.60
2022-09-20T15:47:42.705Z,63.50
2022-09-20T15:50:11.821Z,62.60
2022-09-20T15:52:41.573Z,64.60
2022-09-20T15:55:10.732Z,62.90
2022-09-20T15:57:39.480Z,62.80
2022-09-20T16:00:08.772Z,62.70
2022-09-20T16:02:36.866Z,62.60
2022-09-20T16:05:05.919Z,62.50
2022-09-20T16:07:34.318Z,62.90
2022-09-20T16:10:03.736Z,62.60
2022-09-20T16:12:31.546Z,61.80
2022-09-20T16:14:59.415Z,62.10
2022-09-20T16:17:41.082Z,60.80
2022-09-20T16:20:09.980Z,61.80
2022-09-20T16:22:37.826Z,62.30
2022-09-20T16:25:08.632Z,62.50
2022-09-20T16:27:36.467Z,62.70
2022-09-20T16:30:04.772Z,62.10
2022-09-20T16:32:32.567Z,62.90
2022-09-20T16:35:03.863Z,62.10
2022-09-20T16:37:32.636Z,62.20
2022-09-20T16:40:00.729Z,62.20
2022-09-20T16:42:29.829Z,62.70
2022-09-20T16:44:58.418Z,62.20
2022-09-20T16:47:26.384Z,62.80
2022-09-20T16:49:54.673Z,62.90
2022-09-20T16:52:22.622Z,62.70
2022-09-20T16:54:50.423Z,64.70
2022-09-20T16:57:18.825Z,64.40
2022-09-20T16:59:48.015Z,64.00
2022-09-20T17:02:15.822Z,64.20
2022-09-20T17:04:44.443Z,64.30
2022-09-20T17:07:12.354Z,64.30
2022-09-20T17:09:40.356Z,64.50
2022-09-20T17:12:09.579Z,64.00
2022-09-20T17:14:38.068Z,64.50
2022-09-20T17:17:07.236Z,64.70
2022-09-20T17:19:35.081Z,65.00
2022-09-20T17:22:03.076Z,68.50
2022-09-20T17:24:31.173Z,65.80
2022-09-20T17:26:59.002Z,66.20
2022-09-20T17:29:27.561Z,66.50
2022-09-20T17:31:59.564Z,66.70
2022-09-20T17:34:29.923Z,66.60
2022-09-20T17:36:57.724Z,66.00
2022-09-20T17:39:25.700Z,66.90
2022-09-20T17:41:53.679Z,68.00
2022-09-20T17:44:21.697Z,66.90
2022-09-20T17:46:50.756Z,67.10
2022-09-20T17:49:20.741Z,67.30
2022-09-20T17:51:51.403Z,67.60
2022-09-20T17:54:20.727Z,69.60
2022-09-20T17:56:50.378Z,68.10
2022-09-20T17:59:20.499Z,68.20
2022-09-20T18:01:50.409Z,68.20
2022-09-20T18:04:20.619Z,68.40
2022-09-20T18:06:51.029Z,68.50
2022-09-20T18:09:20.451Z,68.50
2022-09-20T18:11:49.826Z,68.80
2022-09-20T18:14:18.937Z,68.90
2022-09-20T18:16:47.222Z,69.00
2022-09-20T18:19:15.979Z,69.30
2022-09-20T18:21:44.143Z,69.40
2022-09-20T18:24:13.428Z,69.20
2022-09-20T18:26:42.047Z,69.30
2022-09-20T18:29:12.211Z,69.70
2022-09-20T18:31:43.054Z,69.60
2022-09-20T18:34:17.829Z,69.90
2022-09-20T18:36:48.271Z,70.10
2022-09-20T18:39:17.454Z,70.20
2022-09-20T18:41:45.279Z,70.10
2022-09-20T18:44:14.459Z,70.50
2022-09-20T18:46:42.351Z,73.20
2022-09-20T18:49:12.630Z,70.60
2022-09-20T18:51:40.590Z,71.00
2022-09-20T18:54:09.861Z,70.70
2022-09-20T18:56:40.699Z,71.50
2022-09-20T18:59:14.972Z,71.50
2022-09-20T19:02:19.716Z,71.60
2022-09-20T19:05:18.755Z,71.80
2022-09-20T19:07:57.977Z,71.80
2022-09-20T19:10:37.985Z,69.90
2022-09-20T19:13:19.842Z,71.60
2022-09-20T19:16:05.227Z,72.00
2022-09-20T19:18:58.622Z,72.20
2022-09-20T19:21:31.974Z,72.30
2022-09-20T19:24:13.847Z,72.30
2022-09-20T19:26:42.141Z,72.60
2022-09-20T19:29:19.980Z,72.60
2022-09-20T19:31:49.892Z,72.90
2022-09-20T19:34:21.255Z,73.00
2022-09-20T19:37:08.050Z,74.30
2022-09-20T19:39:48.861Z,76.80
2022-09-20T19:42:25.855Z,74.40
2022-09-20T19:45:03.613Z,74.10
2022-09-20T19:47:42.285Z,74.20
2022-09-20T19:50:16.808Z,74.20
2022-09-20T19:52:45.598Z,74.10
2022-09-20T19:55:15.545Z,74.00
2022-09-20T19:57:46.847Z,74.20
2022-09-20T20:00:18.341Z,74.40
2022-09-20T20:02:47.316Z,74.30
2022-09-20T20:05:17.459Z,74.50
2022-09-20T20:07:53.424Z,74.60
2022-09-20T20:10:27.962Z,74.70
2022-09-20T20:13:26.339Z,74.60
2022-09-20T20:16:01.872Z,74.70
2022-09-20T20:18:35.912Z,74.60
2022-09-20T20:21:06.134Z,76.90
2022-09-20T20:23:51.381Z,74.40
2022-09-20T20:26:22.409Z,74.60
2022-09-20T20:28:52.495Z,74.50
2022-09-20T20:31:22.626Z,74.40
2022-09-20T20:33:50.770Z,74.40
2022-09-20T20:36:18.791Z,74.50
2022-09-20T20:38:49.888Z,74.60
2022-09-20T20:41:20.327Z,74.70
2022-09-20T20:43:49.575Z,74.90
2022-09-20T20:46:18.919Z,75.10
2022-09-20T20:48:48.287Z,74.90
2022-09-20T20:51:18.198Z,74.90
2022-09-20T20:53:47.946Z,75.00
2022-09-20T20:56:17.257Z,75.20
2022-09-20T20:58:46.197Z,75.20
2022-09-20T21:01:15.582Z,74.60
2022-09-20T21:03:46.539Z,75.60
2022-09-20T21:06:17.101Z,75.50
2022-09-20T21:08:49.290Z,75.60
2022-09-20T21:11:23.230Z,74.20
2022-09-20T21:13:51.590Z,75.70
2022-09-20T21:16:21.535Z,75.50
2022-09-20T21:18:50.679Z,75.80
2022-09-20T21:21:21.979Z,76.10
2022-09-20T21:23:52.002Z,76.00
2022-09-20T21:26:21.155Z,77.10
2022-09-20T21:28:52.415Z,76.10
2022-09-20T21:31:22.295Z,76.90
2022-09-20T21:33:50.505Z,74.10
2022-09-20T21:36:21.988Z,76.50
2022-09-20T21:38:49.998Z,76.70
2022-09-20T21:41:20.002Z,76.30
2022-09-20T21:43:48.817Z,76.60
2022-09-20T21:46:18.855Z,76.30
2022-09-20T21:48:48.148Z,77.30
2022-09-20T21:51:18.221Z,77.30
2022-09-20T21:53:48.199Z,76.70
2022-09-20T21:56:17.501Z,76.90
2022-09-20T21:58:46.128Z,77.00
2022-09-20T22:01:15.672Z,76.90
2022-09-20T22:03:44.874Z,76.90
2022-09-20T22:06:14.843Z,77.20
2022-09-20T22:08:47.375Z,77.20
2022-09-20T22:11:17.869Z,77.10
2022-09-20T22:13:47.455Z,77.20
2022-09-20T22:16:17.380Z,77.10
2022-09-20T22:18:46.805Z,77.00
2022-09-20T22:21:17.486Z,77.00
2022-09-20T22:23:45.972Z,77.00
2022-09-20T22:26:17.034Z,77.00
2022-09-20T22:28:45.769Z,77.00
2022-09-20T22:31:16.514Z,76.70
2022-09-20T22:33:47.118Z,77.00
2022-09-20T22:36:17.549Z,76.80
2022-09-20T22:38:46.187Z,76.90
2022-09-20T22:41:16.898Z,76.70
2022-09-20T22:43:45.355Z,76.90
2022-09-20T22:46:15.786Z,76.70
2022-09-20T22:48:44.338Z,77.10
2022-09-20T22:51:14.203Z,76.90
2022-09-20T22:53:42.694Z,77.20
2022-09-20T22:56:12.470Z,77.10
2022-09-20T22:58:43.811Z,77.50
2022-09-20T23:01:13.876Z,77.60
2022-09-20T23:03:43.858Z,77.70
2022-09-20T23:06:16.169Z,77.60
2022-09-20T23:08:44.624Z,78.40
2022-09-20T23:11:12.784Z,78.40
2022-09-20T23:13:42.566Z,78.20
2022-09-20T23:16:15.082Z,78.10
2022-09-20T23:18:43.820Z,78.20
2022-09-20T23:21:12.631Z,78.10
2022-09-20T23:23:43.410Z,78.10
2022-09-20T23:26:13.181Z,78.10
2022-09-20T23:28:44.797Z,78.00
2022-09-20T23:31:15.917Z,78.00
2022-09-20T23:33:48.690Z,77.90
2022-09-20T23:36:18.308Z,78.00
2022-09-20T23:38:47.211Z,77.80
2022-09-20T23:41:16.554Z,77.70
2022-09-20T23:43:46.821Z,77.70
2022-09-20T23:46:16.706Z,77.70
2022-09-20T23:48:45.654Z,77.60
2022-09-20T23:51:16.212Z,78.30
2022-09-20T23:53:45.317Z,77.60
2022-09-20T23:56:14.193Z,77.50
2022-09-20T23:58:45.427Z,77.60
